Terminal Aerodrome Forecast
Issued by NWS

Home | Current Version | Previous Version | Text Only | Print | Product List | Glossary On
Versions: 1 2 3 4 5 6 7 8 9 10 11 12 13
582
FTUS46 KMTR 160538
TAFMRY
TAF
KMRY 160538Z 1606/1706 25009KT P6SM BKN250
      TEMPO 1606/1609 BKN009 OVC014
     FM160900 25007KT P6SM BKN200
     FM161100 25011G18KT P6SM SCT200
     FM161600 30014G22KT P6SM FEW200
     FM162100 31011KT P6SM FEW200
     FM170400 08007KT P6SM SKC=

USA.gov is the U.S. government's official web portal to all federal, state and local government web resources and services.